createdAt,value
2022-09-22T00:04:33.347Z,49.70
2022-09-22T00:09:37.558Z,49.60
2022-09-22T00:14:40.449Z,49.70
2022-09-22T00:19:43.535Z,49.50
2022-09-22T00:24:47.783Z,49.50
2022-09-22T00:29:51.863Z,49.60
2022-09-22T00:34:54.746Z,49.60
2022-09-22T00:39:59.059Z,49.70
2022-09-22T00:45:02.342Z,49.90
2022-09-22T00:50:10.894Z,49.80
2022-09-22T00:55:20.004Z,49.90
2022-09-22T01:00:23.851Z,50.10
2022-09-22T01:05:28.398Z,50.00
2022-09-22T01:10:32.739Z,50.00
2022-09-22T01:15:45.632Z,49.90
2022-09-22T01:21:20.388Z,50.20
2022-09-22T01:26:45.855Z,50.40
2022-09-22T01:31:55.440Z,50.30
2022-09-22T01:37:05.461Z,50.10
2022-09-22T01:42:11.910Z,50.20
2022-09-22T01:47:20.724Z,50.00
2022-09-22T01:52:27.888Z,50.10
2022-09-22T01:57:46.401Z,50.10
2022-09-22T02:02:55.174Z,50.30
2022-09-22T02:08:02.583Z,50.10
2022-09-22T02:13:05.493Z,50.20
2022-09-22T02:18:13.831Z,50.10
2022-09-22T02:23:16.730Z,50.20
2022-09-22T02:28:21.023Z,50.20
2022-09-22T02:33:28.315Z,50.10
2022-09-22T02:38:40.475Z,50.20
2022-09-22T02:43:49.537Z,50.20
2022-09-22T02:48:59.211Z,50.20
2022-09-22T02:54:03.424Z,50.30
2022-09-22T02:59:06.378Z,50.20
2022-09-22T03:04:10.853Z,50.20
2022-09-22T03:09:16.554Z,50.30
2022-09-22T03:14:19.444Z,50.20
2022-09-22T03:19:23.690Z,50.20
2022-09-22T03:24:26.793Z,50.30
2022-09-22T03:29:29.709Z,50.30
2022-09-22T03:34:33.993Z,50.30
2022-09-22T03:39:36.928Z,50.60
2022-09-22T03:44:39.837Z,50.50
2022-09-22T03:49:44.157Z,50.40
2022-09-22T03:54:47.114Z,50.40
2022-09-22T03:59:50.042Z,50.50
2022-09-22T04:04:54.340Z,50.40
2022-09-22T04:09:57.481Z,50.50
2022-09-22T04:15:00.388Z,50.50
2022-09-22T04:20:05.764Z,50.30
2022-09-22T04:25:10.116Z,50.40
2022-09-22T04:30:13.773Z,50.40
2022-09-22T04:35:18.245Z,50.50
2022-09-22T04:40:21.403Z,50.50
2022-09-22T04:45:24.630Z,50.50
2022-09-22T04:50:29.372Z,50.50
2022-09-22T04:55:32.240Z,50.50
2022-09-22T05:00:35.182Z,50.50
2022-09-22T05:05:39.497Z,50.60
2022-09-22T05:10:42.426Z,50.50
2022-09-22T05:15:45.495Z,50.50
2022-09-22T05:20:49.698Z,50.60
2022-09-22T05:25:52.591Z,50.60
2022-09-22T05:30:55.472Z,50.60
2022-09-22T05:35:59.779Z,50.70
2022-09-22T05:41:03.715Z,50.80
2022-09-22T05:46:06.888Z,50.80
2022-09-22T05:51:11.316Z,50.90
2022-09-22T05:56:14.197Z,50.90
2022-09-22T06:01:17.164Z,50.90
2022-09-22T06:06:21.451Z,51.10
2022-09-22T06:11:24.358Z,51.10
2022-09-22T06:16:27.319Z,51.00
2022-09-22T06:21:31.641Z,51.20
2022-09-22T06:26:34.507Z,51.40
2022-09-22T06:31:37.578Z,51.50
2022-09-22T06:36:45.236Z,51.60
2022-09-22T06:41:49.049Z,51.80
2022-09-22T06:46:52.105Z,51.80
2022-09-22T06:51:56.345Z,51.90
2022-09-22T06:56:59.284Z,52.20
2022-09-22T07:02:04.380Z,52.20
2022-09-22T07:07:08.918Z,52.40
2022-09-22T07:12:11.804Z,52.70
2022-09-22T07:17:15.060Z,52.80
2022-09-22T07:22:19.566Z,53.00
2022-09-22T07:27:25.906Z,53.40
2022-09-22T07:32:30.203Z,53.50
2022-09-22T07:37:36.032Z,53.80
2022-09-22T07:42:38.926Z,54.20
2022-09-22T07:48:02.368Z,54.10
2022-09-22T07:53:06.877Z,54.40
2022-09-22T07:58:12.902Z,54.30
2022-09-22T08:03:19.482Z,54.40
2022-09-22T08:08:23.786Z,54.30
2022-09-22T08:13:26.773Z,54.30
2022-09-22T08:18:29.662Z,54.10
2022-09-22T08:23:33.953Z,54.00
2022-09-22T08:28:37.124Z,54.20
2022-09-22T08:33:40.682Z,54.30
2022-09-22T08:38:47.518Z,54.30
2022-09-22T08:43:55.205Z,54.40
2022-09-22T08:49:21.595Z,54.40
2022-09-22T08:54:31.499Z,54.30
2022-09-22T08:59:39.367Z,54.20
2022-09-22T09:05:20.160Z,54.20
2022-09-22T09:10:38.624Z,54.30
2022-09-22T09:15:54.741Z,54.30
2022-09-22T09:20:59.468Z,54.30
2022-09-22T09:26:05.574Z,54.20
2022-09-22T09:31:13.203Z,54.00
2022-09-22T09:36:20.560Z,54.00
2022-09-22T09:41:31.538Z,54.20
2022-09-22T09:46:47.956Z,54.10
2022-09-22T09:51:53.736Z,53.70
2022-09-22T09:57:09.779Z,53.60
2022-09-22T10:02:15.808Z,53.10
2022-09-22T10:07:22.061Z,53.30
2022-09-22T10:12:28.838Z,53.00
2022-09-22T10:17:40.254Z,53.30
2022-09-22T10:22:43.701Z,52.60
2022-09-22T10:28:00.977Z,52.50
2022-09-22T10:33:15.644Z,51.80
2022-09-22T10:38:23.390Z,52.00
2022-09-22T10:43:38.032Z,51.90
2022-09-22T10:48:46.732Z,52.10
2022-09-22T10:54:26.060Z,52.50
2022-09-22T11:00:05.948Z,51.50
2022-09-22T11:06:01.422Z,50.80
2022-09-22T11:11:31.305Z,46.80
2022-09-22T11:16:58.444Z,50.10
2022-09-22T11:22:17.281Z,49.10
2022-09-22T11:27:27.150Z,45.90
2022-09-22T11:32:44.511Z,49.30
2022-09-22T11:38:01.706Z,48.70
2022-09-22T11:43:21.142Z,48.30
2022-09-22T11:48:38.879Z,47.80
2022-09-22T11:53:57.111Z,48.00
2022-09-22T11:59:04.775Z,48.30
2022-09-22T12:04:20.297Z,48.70
2022-09-22T12:09:35.825Z,47.40
2022-09-22T12:14:40.949Z,47.60
2022-09-22T12:19:56.908Z,48.90
2022-09-22T12:24:59.818Z,45.60
2022-09-22T12:30:08.843Z,47.10
2022-09-22T12:35:28.710Z,47.30
2022-09-22T12:40:41.255Z,46.10
2022-09-22T12:45:44.697Z,46.10
2022-09-22T12:50:49.812Z,46.10
2022-09-22T12:55:53.504Z,44.30
2022-09-22T13:00:57.438Z,45.90
2022-09-22T13:06:04.348Z,45.10
2022-09-22T13:11:08.885Z,45.30
2022-09-22T13:16:35.388Z,45.30
2022-09-22T13:21:40.175Z,43.90
2022-09-22T13:26:43.867Z,44.30
2022-09-22T13:31:48.382Z,44.40
2022-09-22T13:36:55.631Z,44.40
2022-09-22T13:42:05.633Z,44.30
2022-09-22T13:47:17.050Z,44.30
2022-09-22T13:52:23.430Z,43.30
2022-09-22T13:57:29.432Z,44.00
2022-09-22T14:02:32.853Z,42.40
2022-09-22T14:07:55.272Z,43.50
2022-09-22T14:13:01.426Z,42.60
2022-09-22T14:18:14.217Z,42.80
2022-09-22T14:23:25.116Z,42.20
2022-09-22T14:28:30.816Z,42.50
2022-09-22T14:33:34.645Z,42.60
2022-09-22T14:38:45.876Z,42.90
2022-09-22T14:43:55.116Z,43.30
2022-09-22T14:48:58.024Z,43.50
2022-09-22T14:54:04.079Z,43.40
2022-09-22T14:59:23.863Z,43.10
2022-09-22T15:04:29.262Z,41.10
2022-09-22T15:09:36.432Z,41.10
2022-09-22T15:14:44.152Z,40.90
2022-09-22T15:19:50.584Z,40.80
2022-09-22T15:24:55.198Z,41.00
2022-09-22T15:29:58.124Z,41.50
2022-09-22T15:35:01.161Z,42.00
2022-09-22T15:40:17.295Z,42.30
2022-09-22T15:45:22.429Z,41.20
2022-09-22T15:50:28.363Z,42.00
2022-09-22T15:55:34.146Z,41.80
2022-09-22T16:00:38.893Z,42.00
2022-09-22T16:05:42.154Z,42.10
2022-09-22T16:10:46.509Z,41.90
2022-09-22T16:15:50.317Z,41.90
2022-09-22T16:20:53.699Z,42.30
2022-09-22T16:26:48.079Z,42.40
2022-09-22T16:31:52.431Z,41.60
2022-09-22T16:36:55.455Z,42.30
2022-09-22T16:41:58.488Z,42.40
2022-09-22T16:47:03.168Z,42.70
2022-09-22T16:52:06.156Z,42.80
2022-09-22T16:57:09.260Z,43.00
2022-09-22T17:02:13.607Z,43.10
2022-09-22T17:07:17.415Z,43.00
2022-09-22T17:12:27.437Z,43.00
2022-09-22T17:17:32.777Z,42.80
2022-09-22T17:22:35.650Z,42.90
2022-09-22T17:27:38.816Z,43.00
2022-09-22T17:32:43.265Z,43.10
2022-09-22T17:37:47.220Z,43.20
2022-09-22T17:42:50.337Z,43.30
2022-09-22T17:48:11.909Z,43.20
2022-09-22T17:53:32.378Z,43.20
2022-09-22T17:58:35.267Z,43.40
2022-09-22T18:03:39.503Z,43.40
2022-09-22T18:08:44.243Z,43.40
2022-09-22T18:13:48.276Z,43.50
2022-09-22T18:18:52.686Z,43.60
2022-09-22T18:23:55.585Z,43.50
2022-09-22T18:28:58.642Z,43.60
2022-09-22T18:34:03.775Z,43.60
2022-09-22T18:39:09.011Z,43.80
2022-09-22T18:44:12.906Z,43.70
2022-09-22T18:49:18.046Z,43.80
2022-09-22T18:54:22.313Z,44.00
2022-09-22T18:59:27.245Z,43.90
2022-09-22T19:04:31.551Z,44.10
2022-09-22T19:09:35.046Z,44.10
2022-09-22T19:14:39.741Z,44.10
2022-09-22T19:19:46.062Z,44.20
2022-09-22T19:24:49.178Z,44.30
2022-09-22T19:29:52.578Z,44.30
2022-09-22T19:34:56.987Z,44.40
2022-09-22T19:39:59.880Z,44.30
2022-09-22T19:45:02.864Z,44.30
2022-09-22T19:50:08.575Z,44.50
2022-09-22T19:55:12.496Z,44.60
2022-09-22T20:00:17.942Z,44.50
2022-09-22T20:05:23.068Z,44.60
2022-09-22T20:10:26.202Z,44.80
2022-09-22T20:15:29.095Z,44.70
2022-09-22T20:20:34.028Z,44.80
2022-09-22T20:25:36.931Z,44.80
2022-09-22T20:30:41.543Z,44.90
2022-09-22T20:35:46.841Z,44.90
2022-09-22T20:40:50.577Z,45.00
2022-09-22T20:45:53.573Z,44.90
2022-09-22T20:50:58.658Z,45.00
2022-09-22T20:56:03.149Z,45.10
2022-09-22T21:01:06.816Z,45.00
2022-09-22T21:06:12.525Z,45.10
2022-09-22T21:11:17.146Z,45.30
2022-09-22T21:16:20.102Z,45.20
2022-09-22T21:21:24.603Z,45.20
2022-09-22T21:26:27.664Z,45.40
2022-09-22T21:31:30.601Z,45.30
2022-09-22T21:36:34.915Z,45.40
2022-09-22T21:41:37.800Z,45.40
2022-09-22T21:46:41.561Z,45.40
2022-09-22T21:51:47.211Z,45.40
2022-09-22T21:56:50.760Z,45.50
2022-09-22T22:01:53.735Z,45.50
2022-09-22T22:06:57.960Z,45.60
2022-09-22T22:12:00.831Z,45.60
2022-09-22T22:17:03.736Z,45.60
2022-09-22T22:22:08.046Z,45.60
2022-09-22T22:27:14.033Z,45.70
2022-09-22T22:32:16.928Z,45.70
2022-09-22T22:37:21.415Z,45.80
2022-09-22T22:42:24.358Z,45.80
2022-09-22T22:47:27.662Z,45.70
2022-09-22T22:52:32.252Z,45.80
2022-09-22T22:57:35.125Z,45.90
2022-09-22T23:02:38.608Z,46.00
2022-09-22T23:07:42.819Z,46.00
2022-09-22T23:12:46.746Z,45.90
2022-09-22T23:17:50.999Z,46.00
2022-09-22T23:22:55.276Z,46.10
2022-09-22T23:27:58.474Z,46.10
2022-09-22T23:33:01.346Z,46.10
2022-09-22T23:38:08.776Z,46.10
2022-09-22T23:43:11.964Z,46.10
2022-09-22T23:48:15.412Z,46.20
2022-09-22T23:53:21.369Z,46.20
2022-09-22T23:58:24.316Z,46.30
